sensor_id;sensor_type;location;lat;lon;timestamp;P1;durP1;ratioP1;P2;durP2;ratioP2
3000;SDS011;1510;51.072;6.678;2023-04-07T00:00:39;878.53;;;794.80;;
3000;SDS011;1510;51.072;6.678;2023-04-07T00:03:07;891.47;;;805.07;;
3000;SDS011;1510;51.072;6.678;2023-04-07T00:05:33;909.73;;;823.87;;
3000;SDS011;1510;51.072;6.678;2023-04-07T00:08:00;904.97;;;818.17;;
3000;SDS011;1510;51.072;6.678;2023-04-07T00:10:27;898.70;;;813.33;;
3000;SDS011;1510;51.072;6.678;2023-04-07T00:12:54;905.53;;;820.13;;
3000;SDS011;1510;51.072;6.678;2023-04-07T00:15:21;894.83;;;807.67;;
3000;SDS011;1510;51.072;6.678;2023-04-07T00:17:48;900.30;;;813.23;;
3000;SDS011;1510;51.072;6.678;2023-04-07T00:20:16;887.80;;;800.83;;
3000;SDS011;1510;51.072;6.678;2023-04-07T00:22:43;884.07;;;796.97;;
3000;SDS011;1510;51.072;6.678;2023-04-07T00:25:10;870.83;;;785.83;;
3000;SDS011;1510;51.072;6.678;2023-04-07T00:27:39;884.50;;;797.50;;
3000;SDS011;1510;51.072;6.678;2023-04-07T00:30:06;883.93;;;798.87;;
3000;SDS011;1510;51.072;6.678;2023-04-07T00:32:34;843.30;;;761.50;;
3000;SDS011;1510;51.072;6.678;2023-04-07T00:35:01;850.67;;;767.67;;
3000;SDS011;1510;51.072;6.678;2023-04-07T00:37:29;830.67;;;753.67;;
3000;SDS011;1510;51.072;6.678;2023-04-07T00:39:56;824.63;;;747.77;;
3000;SDS011;1510;51.072;6.678;2023-04-07T00:42:23;876.43;;;792.57;;
3000;SDS011;1510;51.072;6.678;2023-04-07T00:44:52;867.20;;;784.40;;
3000;SDS011;1510;51.072;6.678;2023-04-07T00:47:19;838.27;;;759.27;;
3000;SDS011;1510;51.072;6.678;2023-04-07T00:49:48;851.00;;;770.97;;
3000;SDS011;1510;51.072;6.678;2023-04-07T00:52:14;847.10;;;768.37;;
3000;SDS011;1510;51.072;6.678;2023-04-07T00:54:43;834.47;;;753.70;;
3000;SDS011;1510;51.072;6.678;2023-04-07T00:57:11;808.37;;;730.57;;
3000;SDS011;1510;51.072;6.678;2023-04-07T00:59:38;812.07;;;731.97;;
3000;SDS011;1510;51.072;6.678;2023-04-07T01:02:06;820.47;;;739.90;;
3000;SDS011;1510;51.072;6.678;2023-04-07T01:04:42;829.03;;;741.77;;
3000;SDS011;1510;51.072;6.678;2023-04-07T01:07:14;811.30;;;726.13;;
3000;SDS011;1510;51.072;6.678;2023-04-07T01:09:47;814.43;;;732.83;;
3000;SDS011;1510;51.072;6.678;2023-04-07T01:12:22;810.83;;;731.13;;
3000;SDS011;1510;51.072;6.678;2023-04-07T01:14:54;800.53;;;723.47;;
3000;SDS011;1510;51.072;6.678;2023-04-07T01:17:25;797.57;;;718.93;;
3000;SDS011;1510;51.072;6.678;2023-04-07T01:19:55;810.73;;;732.03;;
3000;SDS011;1510;51.072;6.678;2023-04-07T01:22:27;810.47;;;732.90;;
3000;SDS011;1510;51.072;6.678;2023-04-07T01:25:09;827.47;;;744.53;;
3000;SDS011;1510;51.072;6.678;2023-04-07T01:27:52;793.37;;;719.77;;
3000;SDS011;1510;51.072;6.678;2023-04-07T01:30:28;779.63;;;709.13;;
3000;SDS011;1510;51.072;6.678;2023-04-07T01:32:57;792.17;;;721.07;;
3000;SDS011;1510;51.072;6.678;2023-04-07T01:35:25;785.93;;;715.83;;
3000;SDS011;1510;51.072;6.678;2023-04-07T01:37:58;771.63;;;700.90;;
3000;SDS011;1510;51.072;6.678;2023-04-07T01:40:26;794.57;;;721.60;;
3000;SDS011;1510;51.072;6.678;2023-04-07T01:42:54;777.77;;;708.77;;
3000;SDS011;1510;51.072;6.678;2023-04-07T01:45:22;747.10;;;682.43;;
3000;SDS011;1510;51.072;6.678;2023-04-07T01:47:54;773.13;;;706.47;;
3000;SDS011;1510;51.072;6.678;2023-04-07T01:50:22;803.50;;;732.33;;
3000;SDS011;1510;51.072;6.678;2023-04-07T01:52:50;757.37;;;694.03;;
3000;SDS011;1510;51.072;6.678;2023-04-07T01:55:20;775.87;;;704.93;;
3000;SDS011;1510;51.072;6.678;2023-04-07T01:57:47;771.67;;;703.07;;
3000;SDS011;1510;51.072;6.678;2023-04-07T02:00:14;756.97;;;691.70;;
3000;SDS011;1510;51.072;6.678;2023-04-07T02:02:43;785.37;;;714.17;;
3000;SDS011;1510;51.072;6.678;2023-04-07T02:05:14;764.70;;;698.20;;
3000;SDS011;1510;51.072;6.678;2023-04-07T02:07:47;789.10;;;714.60;;
3000;SDS011;1510;51.072;6.678;2023-04-07T02:10:19;779.47;;;706.23;;
3000;SDS011;1510;51.072;6.678;2023-04-07T02:12:48;793.07;;;718.27;;
3000;SDS011;1510;51.072;6.678;2023-04-07T02:15:16;771.47;;;701.50;;
3000;SDS011;1510;51.072;6.678;2023-04-07T02:17:46;770.27;;;698.97;;
3000;SDS011;1510;51.072;6.678;2023-04-07T02:20:18;773.13;;;704.67;;
3000;SDS011;1510;51.072;6.678;2023-04-07T02:22:46;764.67;;;698.57;;
3000;SDS011;1510;51.072;6.678;2023-04-07T02:25:20;772.90;;;703.17;;
3000;SDS011;1510;51.072;6.678;2023-04-07T02:27:49;792.07;;;717.57;;
3000;SDS011;1510;51.072;6.678;2023-04-07T02:30:16;772.90;;;704.53;;
3000;SDS011;1510;51.072;6.678;2023-04-07T02:32:42;803.13;;;726.47;;
3000;SDS011;1510;51.072;6.678;2023-04-07T02:35:10;793.07;;;719.20;;
3000;SDS011;1510;51.072;6.678;2023-04-07T02:37:40;819.17;;;739.33;;
3000;SDS011;1510;51.072;6.678;2023-04-07T02:40:07;793.87;;;717.47;;
3000;SDS011;1510;51.072;6.678;2023-04-07T02:42:35;771.90;;;698.50;;
3000;SDS011;1510;51.072;6.678;2023-04-07T02:45:02;754.73;;;685.33;;
3000;SDS011;1510;51.072;6.678;2023-04-07T02:47:29;755.17;;;686.17;;
3000;SDS011;1510;51.072;6.678;2023-04-07T02:49:56;754.13;;;687.33;;
3000;SDS011;1510;51.072;6.678;2023-04-07T02:52:23;739.03;;;676.67;;
3000;SDS011;1510;51.072;6.678;2023-04-07T02:54:51;764.37;;;693.27;;
3000;SDS011;1510;51.072;6.678;2023-04-07T02:57:18;762.00;;;693.83;;
3000;SDS011;1510;51.072;6.678;2023-04-07T02:59:45;757.37;;;693.27;;
3000;SDS011;1510;51.072;6.678;2023-04-07T03:02:12;762.33;;;697.43;;
3000;SDS011;1510;51.072;6.678;2023-04-07T03:04:39;774.27;;;706.07;;
3000;SDS011;1510;51.072;6.678;2023-04-07T03:07:07;772.97;;;705.77;;
3000;SDS011;1510;51.072;6.678;2023-04-07T03:09:34;760.47;;;699.20;;
3000;SDS011;1510;51.072;6.678;2023-04-07T03:12:02;736.70;;;678.00;;
3000;SDS011;1510;51.072;6.678;2023-04-07T03:14:29;729.73;;;667.93;;
3000;SDS011;1510;51.072;6.678;2023-04-07T03:16:56;716.67;;;657.77;;
3000;SDS011;1510;51.072;6.678;2023-04-07T03:19:23;745.77;;;681.73;;
3000;SDS011;1510;51.072;6.678;2023-04-07T03:21:49;745.10;;;681.83;;
3000;SDS011;1510;51.072;6.678;2023-04-07T03:24:16;740.37;;;677.40;;
3000;SDS011;1510;51.072;6.678;2023-04-07T03:26:43;731.50;;;668.50;;
3000;SDS011;1510;51.072;6.678;2023-04-07T03:29:11;732.10;;;669.27;;
3000;SDS011;1510;51.072;6.678;2023-04-07T03:31:41;746.67;;;684.87;;
3000;SDS011;1510;51.072;6.678;2023-04-07T03:34:08;732.93;;;673.53;;
3000;SDS011;1510;51.072;6.678;2023-04-07T03:36:35;734.73;;;676.07;;
3000;SDS011;1510;51.072;6.678;2023-04-07T03:39:02;717.43;;;663.97;;
3000;SDS011;1510;51.072;6.678;2023-04-07T03:41:29;707.60;;;654.73;;
3000;SDS011;1510;51.072;6.678;2023-04-07T03:43:56;749.87;;;686.40;;
3000;SDS011;1510;51.072;6.678;2023-04-07T03:46:24;734.80;;;673.33;;
3000;SDS011;1510;51.072;6.678;2023-04-07T03:48:51;760.70;;;693.00;;
3000;SDS011;1510;51.072;6.678;2023-04-07T03:51:18;775.93;;;705.20;;
3000;SDS011;1510;51.072;6.678;2023-04-07T03:53:45;780.33;;;709.73;;
3000;SDS011;1510;51.072;6.678;2023-04-07T03:56:12;781.00;;;708.90;;
3000;SDS011;1510;51.072;6.678;2023-04-07T03:58:39;766.67;;;698.00;;
3000;SDS011;1510;51.072;6.678;2023-04-07T04:01:06;768.23;;;699.67;;
3000;SDS011;1510;51.072;6.678;2023-04-07T04:03:35;771.60;;;698.47;;
3000;SDS011;1510;51.072;6.678;2023-04-07T04:06:02;762.50;;;689.67;;
3000;SDS011;1510;51.072;6.678;2023-04-07T04:08:29;780.77;;;706.63;;
3000;SDS011;1510;51.072;6.678;2023-04-07T04:10:56;781.90;;;707.27;;
3000;SDS011;1510;51.072;6.678;2023-04-07T04:13:23;787.00;;;713.27;;
3000;SDS011;1510;51.072;6.678;2023-04-07T04:15:49;785.53;;;712.00;;
3000;SDS011;1510;51.072;6.678;2023-04-07T04:18:17;784.37;;;710.07;;
3000;SDS011;1510;51.072;6.678;2023-04-07T04:20:45;795.90;;;721.60;;
3000;SDS011;1510;51.072;6.678;2023-04-07T04:23:12;790.17;;;716.53;;
3000;SDS011;1510;51.072;6.678;2023-04-07T04:25:39;800.67;;;726.80;;
3000;SDS011;1510;51.072;6.678;2023-04-07T04:28:06;785.47;;;712.87;;
3000;SDS011;1510;51.072;6.678;2023-04-07T04:30:33;793.57;;;719.03;;
3000;SDS011;1510;51.072;6.678;2023-04-07T04:33:00;775.60;;;704.67;;
3000;SDS011;1510;51.072;6.678;2023-04-07T04:35:28;756.07;;;690.23;;
3000;SDS011;1510;51.072;6.678;2023-04-07T04:37:56;758.10;;;690.20;;
3000;SDS011;1510;51.072;6.678;2023-04-07T04:40:23;757.67;;;690.90;;
3000;SDS011;1510;51.072;6.678;2023-04-07T04:42:50;762.70;;;694.90;;
3000;SDS011;1510;51.072;6.678;2023-04-07T04:45:18;765.13;;;696.87;;
3000;SDS011;1510;51.072;6.678;2023-04-07T04:47:44;749.23;;;683.80;;
3000;SDS011;1510;51.072;6.678;2023-04-07T04:50:11;744.03;;;679.60;;
3000;SDS011;1510;51.072;6.678;2023-04-07T04:52:38;746.00;;;680.90;;
3000;SDS011;1510;51.072;6.678;2023-04-07T04:55:07;733.20;;;671.70;;
3000;SDS011;1510;51.072;6.678;2023-04-07T04:57:34;743.63;;;679.27;;
3000;SDS011;1510;51.072;6.678;2023-04-07T05:00:01;725.90;;;666.80;;
3000;SDS011;1510;51.072;6.678;2023-04-07T05:02:29;744.10;;;682.80;;
3000;SDS011;1510;51.072;6.678;2023-04-07T05:04:55;746.60;;;684.00;;
3000;SDS011;1510;51.072;6.678;2023-04-07T05:07:22;741.17;;;678.53;;
3000;SDS011;1510;51.072;6.678;2023-04-07T05:09:50;742.50;;;681.70;;
3000;SDS011;1510;51.072;6.678;2023-04-07T05:12:18;729.57;;;668.00;;
3000;SDS011;1510;51.072;6.678;2023-04-07T05:14:45;727.50;;;666.07;;
3000;SDS011;1510;51.072;6.678;2023-04-07T05:17:12;737.80;;;674.40;;
3000;SDS011;1510;51.072;6.678;2023-04-07T05:19:38;725.77;;;663.00;;
3000;SDS011;1510;51.072;6.678;2023-04-07T05:22:05;726.00;;;663.07;;
3000;SDS011;1510;51.072;6.678;2023-04-07T05:24:32;726.63;;;663.37;;
3000;SDS011;1510;51.072;6.678;2023-04-07T05:26:59;724.13;;;661.23;;
3000;SDS011;1510;51.072;6.678;2023-04-07T05:29:28;729.50;;;666.80;;
3000;SDS011;1510;51.072;6.678;2023-04-07T05:31:55;728.23;;;665.33;;
3000;SDS011;1510;51.072;6.678;2023-04-07T05:34:22;724.10;;;660.03;;
3000;SDS011;1510;51.072;6.678;2023-04-07T05:36:49;712.13;;;649.60;;
3000;SDS011;1510;51.072;6.678;2023-04-07T05:39:16;684.50;;;628.17;;
3000;SDS011;1510;51.072;6.678;2023-04-07T05:41:46;687.23;;;628.87;;
3000;SDS011;1510;51.072;6.678;2023-04-07T05:44:12;694.83;;;635.57;;
3000;SDS011;1510;51.072;6.678;2023-04-07T05:46:41;682.40;;;627.13;;
3000;SDS011;1510;51.072;6.678;2023-04-07T05:49:08;685.43;;;631.00;;
3000;SDS011;1510;51.072;6.678;2023-04-07T05:51:34;694.43;;;637.17;;
3000;SDS011;1510;51.072;6.678;2023-04-07T05:54:01;687.40;;;631.77;;
3000;SDS011;1510;51.072;6.678;2023-04-07T05:56:28;673.20;;;620.00;;
3000;SDS011;1510;51.072;6.678;2023-04-07T05:58:57;685.57;;;631.77;;
3000;SDS011;1510;51.072;6.678;2023-04-07T06:01:25;692.80;;;637.67;;
3000;SDS011;1510;51.072;6.678;2023-04-07T06:03:54;697.13;;;640.33;;
3000;SDS011;1510;51.072;6.678;2023-04-07T06:06:22;703.97;;;644.77;;
3000;SDS011;1510;51.072;6.678;2023-04-07T06:08:50;701.07;;;643.73;;
3000;SDS011;1510;51.072;6.678;2023-04-07T06:11:17;683.30;;;630.97;;
3000;SDS011;1510;51.072;6.678;2023-04-07T06:13:44;704.10;;;647.57;;
3000;SDS011;1510;51.072;6.678;2023-04-07T06:16:11;696.17;;;638.00;;
3000;SDS011;1510;51.072;6.678;2023-04-07T06:18:38;693.67;;;634.77;;
3000;SDS011;1510;51.072;6.678;2023-04-07T06:21:07;707.77;;;648.60;;
3000;SDS011;1510;51.072;6.678;2023-04-07T06:23:34;714.27;;;654.60;;
3000;SDS011;1510;51.072;6.678;2023-04-07T06:26:03;688.10;;;629.07;;
3000;SDS011;1510;51.072;6.678;2023-04-07T06:28:30;683.23;;;627.67;;
3000;SDS011;1510;51.072;6.678;2023-04-07T06:30:57;677.13;;;623.90;;
3000;SDS011;1510;51.072;6.678;2023-04-07T06:33:24;677.17;;;623.13;;
3000;SDS011;1510;51.072;6.678;2023-04-07T06:35:52;654.93;;;609.63;;
3000;SDS011;1510;51.072;6.678;2023-04-07T06:38:21;678.10;;;623.43;;
3000;SDS011;1510;51.072;6.678;2023-04-07T06:40:49;683.17;;;627.00;;
3000;SDS011;1510;51.072;6.678;2023-04-07T06:43:16;675.13;;;618.53;;
3000;SDS011;1510;51.072;6.678;2023-04-07T06:45:43;670.37;;;612.27;;
3000;SDS011;1510;51.072;6.678;2023-04-07T06:48:10;668.03;;;609.67;;
3000;SDS011;1510;51.072;6.678;2023-04-07T06:50:37;671.83;;;611.43;;
3000;SDS011;1510;51.072;6.678;2023-04-07T06:53:04;668.73;;;611.77;;
3000;SDS011;1510;51.072;6.678;2023-04-07T06:55:33;662.50;;;604.67;;
3000;SDS011;1510;51.072;6.678;2023-04-07T06:58:00;667.33;;;612.10;;
3000;SDS011;1510;51.072;6.678;2023-04-07T07:00:27;682.13;;;621.20;;
3000;SDS011;1510;51.072;6.678;2023-04-07T07:02:56;677.53;;;619.93;;
3000;SDS011;1510;51.072;6.678;2023-04-07T07:05:23;682.03;;;622.17;;
3000;SDS011;1510;51.072;6.678;2023-04-07T07:07:50;676.67;;;619.43;;
3000;SDS011;1510;51.072;6.678;2023-04-07T07:10:17;685.30;;;626.40;;
3000;SDS011;1510;51.072;6.678;2023-04-07T07:12:46;689.67;;;629.47;;
3000;SDS011;1510;51.072;6.678;2023-04-07T07:15:12;683.57;;;628.20;;
3000;SDS011;1510;51.072;6.678;2023-04-07T07:17:39;683.90;;;626.07;;
3000;SDS011;1510;51.072;6.678;2023-04-07T07:20:07;683.63;;;626.63;;
3000;SDS011;1510;51.072;6.678;2023-04-07T07:22:35;685.53;;;628.20;;
3000;SDS011;1510;51.072;6.678;2023-04-07T07:25:04;684.70;;;628.93;;
3000;SDS011;1510;51.072;6.678;2023-04-07T07:27:31;686.17;;;629.53;;
3000;SDS011;1510;51.072;6.678;2023-04-07T07:29:59;681.27;;;625.27;;
3000;SDS011;1510;51.072;6.678;2023-04-07T07:32:26;688.57;;;633.53;;
3000;SDS011;1510;51.072;6.678;2023-04-07T07:34:53;695.10;;;638.90;;
3000;SDS011;1510;51.072;6.678;2023-04-07T07:37:20;683.63;;;628.20;;
3000;SDS011;1510;51.072;6.678;2023-04-07T07:39:47;682.60;;;629.67;;
3000;SDS011;1510;51.072;6.678;2023-04-07T07:42:14;699.10;;;643.37;;
3000;SDS011;1510;51.072;6.678;2023-04-07T07:44:41;694.70;;;639.07;;
3000;SDS011;1510;51.072;6.678;2023-04-07T07:47:09;691.00;;;634.60;;
3000;SDS011;1510;51.072;6.678;2023-04-07T07:49:36;690.43;;;635.43;;
3000;SDS011;1510;51.072;6.678;2023-04-07T07:52:05;699.80;;;644.77;;
3000;SDS011;1510;51.072;6.678;2023-04-07T07:54:32;690.23;;;636.77;;
3000;SDS011;1510;51.072;6.678;2023-04-07T07:56:59;689.80;;;635.63;;
3000;SDS011;1510;51.072;6.678;2023-04-07T07:59:29;691.83;;;638.93;;
3000;SDS011;1510;51.072;6.678;2023-04-07T08:01:56;682.83;;;632.00;;
3000;SDS011;1510;51.072;6.678;2023-04-07T08:04:28;689.50;;;637.90;;
3000;SDS011;1510;51.072;6.678;2023-04-07T08:06:54;676.50;;;626.00;;
3000;SDS011;1510;51.072;6.678;2023-04-07T08:09:22;658.87;;;613.30;;
3000;SDS011;1510;51.072;6.678;2023-04-07T08:11:50;550.60;;;524.10;;
3000;SDS011;1510;51.072;6.678;2023-04-07T08:14:19;470.27;;;451.63;;
3000;SDS011;1510;51.072;6.678;2023-04-07T08:16:46;555.63;;;531.40;;
3000;SDS011;1510;51.072;6.678;2023-04-07T08:19:13;451.57;;;434.27;;
3000;SDS011;1510;51.072;6.678;2023-04-07T08:21:41;555.00;;;532.37;;
3000;SDS011;1510;51.072;6.678;2023-04-07T08:24:08;474.03;;;456.83;;
3000;SDS011;1510;51.072;6.678;2023-04-07T08:26:35;418.73;;;404.07;;
3000;SDS011;1510;51.072;6.678;2023-04-07T08:29:02;404.97;;;391.07;;
3000;SDS011;1510;51.072;6.678;2023-04-07T08:31:29;444.80;;;429.13;;
3000;SDS011;1510;51.072;6.678;2023-04-07T08:33:56;426.70;;;411.97;;
3000;SDS011;1510;51.072;6.678;2023-04-07T08:36:23;424.93;;;409.33;;
3000;SDS011;1510;51.072;6.678;2023-04-07T08:38:53;366.03;;;353.20;;
3000;SDS011;1510;51.072;6.678;2023-04-07T08:41:23;367.83;;;355.13;;
3000;SDS011;1510;51.072;6.678;2023-04-07T08:43:55;344.80;;;332.90;;
3000;SDS011;1510;51.072;6.678;2023-04-07T08:46:23;448.50;;;432.83;;
3000;SDS011;1510;51.072;6.678;2023-04-07T08:48:51;411.63;;;397.47;;
3000;SDS011;1510;51.072;6.678;2023-04-07T08:51:23;449.00;;;431.53;;
3000;SDS011;1510;51.072;6.678;2023-04-07T08:53:57;316.20;;;305.70;;
3000;SDS011;1510;51.072;6.678;2023-04-07T08:56:30;148.73;;;142.93;;
3000;SDS011;1510;51.072;6.678;2023-04-07T08:58:58;152.83;;;147.00;;
3000;SDS011;1510;51.072;6.678;2023-04-07T09:01:29;55.33;;;51.53;;
3000;SDS011;1510;51.072;6.678;2023-04-07T09:03:57;142.60;;;136.47;;
3000;SDS011;1510;51.072;6.678;2023-04-07T09:06:25;208.67;;;200.33;;
3000;SDS011;1510;51.072;6.678;2023-04-07T09:08:52;151.50;;;145.57;;
3000;SDS011;1510;51.072;6.678;2023-04-07T09:11:25;137.40;;;132.00;;
3000;SDS011;1510;51.072;6.678;2023-04-07T09:13:52;123.77;;;118.60;;
3000;SDS011;1510;51.072;6.678;2023-04-07T09:16:19;361.93;;;349.57;;
3000;SDS011;1510;51.072;6.678;2023-04-07T09:18:47;468.63;;;451.33;;
3000;SDS011;1510;51.072;6.678;2023-04-07T09:21:14;612.60;;;586.03;;
3000;SDS011;1510;51.072;6.678;2023-04-07T09:23:41;666.77;;;634.33;;
3000;SDS011;1510;51.072;6.678;2023-04-07T09:26:19;669.77;;;635.37;;
3000;SDS011;1510;51.072;6.678;2023-04-07T09:28:50;687.27;;;649.70;;
3000;SDS011;1510;51.072;6.678;2023-04-07T09:31:19;522.87;;;501.63;;
3000;SDS011;1510;51.072;6.678;2023-04-07T09:33:46;638.83;;;608.13;;
3000;SDS011;1510;51.072;6.678;2023-04-07T09:36:13;689.37;;;649.17;;
3000;SDS011;1510;51.072;6.678;2023-04-07T09:38:42;692.97;;;652.87;;
3000;SDS011;1510;51.072;6.678;2023-04-07T09:41:12;627.87;;;598.37;;
3000;SDS011;1510;51.072;6.678;2023-04-07T09:43:42;598.03;;;570.20;;
3000;SDS011;1510;51.072;6.678;2023-04-07T09:46:11;643.87;;;610.20;;
3000;SDS011;1510;51.072;6.678;2023-04-07T09:48:41;665.53;;;627.40;;
3000;SDS011;1510;51.072;6.678;2023-04-07T09:51:10;674.50;;;635.80;;
3000;SDS011;1510;51.072;6.678;2023-04-07T09:53:42;680.30;;;639.87;;
3000;SDS011;1510;51.072;6.678;2023-04-07T09:56:11;703.77;;;656.50;;
3000;SDS011;1510;51.072;6.678;2023-04-07T09:58:42;669.90;;;633.33;;
3000;SDS011;1510;51.072;6.678;2023-04-07T10:01:12;682.27;;;641.60;;
3000;SDS011;1510;51.072;6.678;2023-04-07T10:03:40;681.17;;;640.47;;
3000;SDS011;1510;51.072;6.678;2023-04-07T10:06:07;681.10;;;638.63;;
3000;SDS011;1510;51.072;6.678;2023-04-07T10:08:37;678.10;;;635.97;;
3000;SDS011;1510;51.072;6.678;2023-04-07T10:11:09;651.10;;;612.47;;
3000;SDS011;1510;51.072;6.678;2023-04-07T10:13:38;601.40;;;569.67;;
3000;SDS011;1510;51.072;6.678;2023-04-07T10:16:11;625.30;;;590.60;;
3000;SDS011;1510;51.072;6.678;2023-04-07T10:18:38;559.47;;;534.07;;
3000;SDS011;1510;51.072;6.678;2023-04-07T10:21:06;526.20;;;504.60;;
3000;SDS011;1510;51.072;6.678;2023-04-07T10:23:42;332.13;;;320.17;;
3000;SDS011;1510;51.072;6.678;2023-04-07T10:26:14;399.87;;;385.53;;
3000;SDS011;1510;51.072;6.678;2023-04-07T10:28:45;273.60;;;263.87;;
3000;SDS011;1510;51.072;6.678;2023-04-07T10:31:16;306.40;;;296.00;;
3000;SDS011;1510;51.072;6.678;2023-04-07T10:33:44;285.57;;;275.47;;
3000;SDS011;1510;51.072;6.678;2023-04-07T10:36:13;375.17;;;362.27;;
3000;SDS011;1510;51.072;6.678;2023-04-07T10:38:40;315.97;;;305.00;;
3000;SDS011;1510;51.072;6.678;2023-04-07T10:44:01;422.47;;;407.10;;
3000;SDS011;1510;51.072;6.678;2023-04-07T10:49:29;354.00;;;342.63;;
3000;SDS011;1510;51.072;6.678;2023-04-07T11:01:15;253.00;;;244.30;;
3000;SDS011;1510;51.072;6.678;2023-04-07T11:03:53;135.87;;;130.83;;
3000;SDS011;1510;51.072;6.678;2023-04-07T11:06:21;76.53;;;72.83;;
3000;SDS011;1510;51.072;6.678;2023-04-07T11:08:48;40.07;;;37.40;;
3000;SDS011;1510;51.072;6.678;2023-04-07T11:11:16;41.47;;;38.23;;
3000;SDS011;1510;51.072;6.678;2023-04-07T11:13:47;23.80;;;21.23;;
3000;SDS011;1510;51.072;6.678;2023-04-07T11:16:16;32.93;;;30.83;;
3000;SDS011;1510;51.072;6.678;2023-04-07T11:18:44;23.85;;;21.75;;
3000;SDS011;1510;51.072;6.678;2023-04-07T11:21:16;16.90;;;15.43;;
3000;SDS011;1510;51.072;6.678;2023-04-07T11:23:43;14.60;;;11.45;;
3000;SDS011;1510;51.072;6.678;2023-04-07T11:26:12;13.20;;;11.87;;
3000;SDS011;1510;51.072;6.678;2023-04-07T11:28:43;19.17;;;9.03;;
3000;SDS011;1510;51.072;6.678;2023-04-07T11:31:11;15.33;;;10.60;;
3000;SDS011;1510;51.072;6.678;2023-04-07T11:33:51;16.50;;;11.17;;
3000;SDS011;1510;51.072;6.678;2023-04-07T11:36:25;11.27;;;6.53;;
3000;SDS011;1510;51.072;6.678;2023-04-07T11:38:53;14.93;;;8.83;;
3000;SDS011;1510;51.072;6.678;2023-04-07T11:41:22;17.20;;;9.95;;
3000;SDS011;1510;51.072;6.678;2023-04-07T11:44:02;20.07;;;9.03;;
3000;SDS011;1510;51.072;6.678;2023-04-07T11:46:33;13.63;;;6.27;;
3000;SDS011;1510;51.072;6.678;2023-04-07T11:49:08;16.73;;;8.70;;
3000;SDS011;1510;51.072;6.678;2023-04-07T11:51:36;11.50;;;6.47;;
3000;SDS011;1510;51.072;6.678;2023-04-07T11:54:06;18.23;;;11.40;;
3000;SDS011;1510;51.072;6.678;2023-04-07T11:56:42;15.20;;;10.83;;
3000;SDS011;1510;51.072;6.678;2023-04-07T11:59:17;25.20;;;13.80;;
3000;SDS011;1510;51.072;6.678;2023-04-07T12:01:47;20.50;;;15.57;;
3000;SDS011;1510;51.072;6.678;2023-04-07T12:04:16;23.27;;;20.67;;
3000;SDS011;1510;51.072;6.678;2023-04-07T12:06:44;21.00;;;12.97;;
3000;SDS011;1510;51.072;6.678;2023-04-07T12:09:28;23.23;;;18.93;;
3000;SDS011;1510;51.072;6.678;2023-04-07T12:11:56;20.83;;;15.50;;
3000;SDS011;1510;51.072;6.678;2023-04-07T12:14:24;24.50;;;16.97;;
3000;SDS011;1510;51.072;6.678;2023-04-07T12:16:51;23.13;;;15.87;;
3000;SDS011;1510;51.072;6.678;2023-04-07T12:19:23;25.57;;;18.00;;
3000;SDS011;1510;51.072;6.678;2023-04-07T12:21:50;22.57;;;15.57;;
3000;SDS011;1510;51.072;6.678;2023-04-07T12:24:17;20.20;;;14.20;;
3000;SDS011;1510;51.072;6.678;2023-04-07T12:26:44;15.20;;;12.53;;
3000;SDS011;1510;51.072;6.678;2023-04-07T12:29:11;20.30;;;17.13;;
3000;SDS011;1510;51.072;6.678;2023-04-07T12:31:38;19.67;;;14.40;;
3000;SDS011;1510;51.072;6.678;2023-04-07T12:34:06;21.60;;;14.00;;
3000;SDS011;1510;51.072;6.678;2023-04-07T12:36:34;17.27;;;7.70;;
3000;SDS011;1510;51.072;6.678;2023-04-07T12:39:01;17.50;;;12.90;;
3000;SDS011;1510;51.072;6.678;2023-04-07T12:41:28;20.03;;;12.00;;
3000;SDS011;1510;51.072;6.678;2023-04-07T12:43:56;19.70;;;11.90;;
3000;SDS011;1510;51.072;6.678;2023-04-07T12:46:23;14.67;;;8.33;;
3000;SDS011;1510;51.072;6.678;2023-04-07T12:48:52;20.50;;;10.40;;
3000;SDS011;1510;51.072;6.678;2023-04-07T12:51:19;18.23;;;9.67;;
3000;SDS011;1510;51.072;6.678;2023-04-07T12:53:54;20.20;;;9.53;;
3000;SDS011;1510;51.072;6.678;2023-04-07T12:56:21;16.93;;;11.47;;
3000;SDS011;1510;51.072;6.678;2023-04-07T12:58:48;14.80;;;8.87;;
3000;SDS011;1510;51.072;6.678;2023-04-07T13:01:15;17.10;;;9.70;;
3000;SDS011;1510;51.072;6.678;2023-04-07T13:03:42;14.73;;;8.20;;
3000;SDS011;1510;51.072;6.678;2023-04-07T13:06:09;18.27;;;8.53;;
3000;SDS011;1510;51.072;6.678;2023-04-07T13:08:37;21.10;;;9.50;;
3000;SDS011;1510;51.072;6.678;2023-04-07T13:11:06;12.37;;;8.03;;
3000;SDS011;1510;51.072;6.678;2023-04-07T13:13:33;17.40;;;8.17;;
3000;SDS011;1510;51.072;6.678;2023-04-07T13:16:02;14.87;;;7.70;;
3000;SDS011;1510;51.072;6.678;2023-04-07T13:18:28;16.27;;;8.07;;
3000;SDS011;1510;51.072;6.678;2023-04-07T13:20:55;21.83;;;9.30;;
3000;SDS011;1510;51.072;6.678;2023-04-07T13:23:25;16.67;;;7.67;;
3000;SDS011;1510;51.072;6.678;2023-04-07T13:25:52;16.53;;;8.60;;
3000;SDS011;1510;51.072;6.678;2023-04-07T13:28:20;15.87;;;14.00;;
3000;SDS011;1510;51.072;6.678;2023-04-07T13:30:47;33.13;;;30.97;;
3000;SDS011;1510;51.072;6.678;2023-04-07T13:33:14;40.37;;;37.83;;
3000;SDS011;1510;51.072;6.678;2023-04-07T13:35:41;134.90;;;129.63;;
3000;SDS011;1510;51.072;6.678;2023-04-07T13:38:09;221.87;;;214.03;;
3000;SDS011;1510;51.072;6.678;2023-04-07T13:40:38;154.93;;;148.90;;
3000;SDS011;1510;51.072;6.678;2023-04-07T13:43:11;132.50;;;126.63;;
3000;SDS011;1510;51.072;6.678;2023-04-07T13:45:40;71.07;;;67.33;;
3000;SDS011;1510;51.072;6.678;2023-04-07T13:48:06;33.37;;;30.57;;
3000;SDS011;1510;51.072;6.678;2023-04-07T13:50:35;28.63;;;26.67;;
3000;SDS011;1510;51.072;6.678;2023-04-07T13:53:03;71.83;;;68.07;;
3000;SDS011;1510;51.072;6.678;2023-04-07T13:55:30;64.63;;;61.50;;
3000;SDS011;1510;51.072;6.678;2023-04-07T13:57:57;18.70;;;16.90;;
3000;SDS011;1510;51.072;6.678;2023-04-07T14:00:25;20.47;;;18.40;;
3000;SDS011;1510;51.072;6.678;2023-04-07T14:02:53;19.10;;;17.00;;
3000;SDS011;1510;51.072;6.678;2023-04-07T14:05:20;11.27;;;9.90;;
3000;SDS011;1510;51.072;6.678;2023-04-07T14:07:47;22.70;;;11.60;;
3000;SDS011;1510;51.072;6.678;2023-04-07T14:10:15;21.93;;;18.53;;
3000;SDS011;1510;51.072;6.678;2023-04-07T14:12:41;23.60;;;14.17;;
3000;SDS011;1510;51.072;6.678;2023-04-07T14:15:11;12.43;;;8.70;;
3000;SDS011;1510;51.072;6.678;2023-04-07T14:17:40;23.53;;;10.80;;
3000;SDS011;1510;51.072;6.678;2023-04-07T14:20:08;16.33;;;14.57;;
3000;SDS011;1510;51.072;6.678;2023-04-07T14:22:38;17.47;;;15.87;;
3000;SDS011;1510;51.072;6.678;2023-04-07T14:25:09;18.97;;;17.40;;
3000;SDS011;1510;51.072;6.678;2023-04-07T14:27:41;18.67;;;17.07;;
3000;SDS011;1510;51.072;6.678;2023-04-07T14:30:09;23.93;;;21.03;;
3000;SDS011;1510;51.072;6.678;2023-04-07T14:32:36;52.03;;;48.83;;
3000;SDS011;1510;51.072;6.678;2023-04-07T14:35:03;18.27;;;16.47;;
3000;SDS011;1510;51.072;6.678;2023-04-07T14:37:32;20.13;;;18.53;;
3000;SDS011;1510;51.072;6.678;2023-04-07T14:40:00;48.37;;;45.50;;
3000;SDS011;1510;51.072;6.678;2023-04-07T14:42:27;72.30;;;68.63;;
3000;SDS011;1510;51.072;6.678;2023-04-07T14:44:54;26.17;;;24.27;;
3000;SDS011;1510;51.072;6.678;2023-04-07T14:47:21;78.10;;;73.83;;
3000;SDS011;1510;51.072;6.678;2023-04-07T14:49:49;143.67;;;138.37;;